createdAt,value
2017-09-16T00:00:03.300Z,10.4
2017-09-16T00:15:03.002Z,10.6
2017-09-16T00:30:02.829Z,10.3
2017-09-16T00:45:03.567Z,10.5
2017-09-16T01:00:03.219Z,10.5
2017-09-16T01:15:02.899Z,10.4
2017-09-16T01:30:02.697Z,10.5
2017-09-16T01:45:03.506Z,10.3
2017-09-16T02:00:03.143Z,10.5
2017-09-16T02:15:02.848Z,10.4
2017-09-16T02:30:03.634Z,10.3
2017-09-16T02:45:03.347Z,10.3
2017-09-16T03:00:03.203Z,10.2
2017-09-16T03:15:02.848Z,10.4
2017-09-16T03:30:03.537Z,10.2
2017-09-16T03:45:03.126Z,10.3
2017-09-16T04:00:02.738Z,10.2
2017-09-16T04:15:03.548Z,10.3
2017-09-16T04:30:03.292Z,10.4
2017-09-16T04:45:02.961Z,10.2
2017-09-16T05:00:02.545Z,10.3
2017-09-16T05:15:03.224Z,10.3
2017-09-16T05:30:02.934Z,10.4
2017-09-16T05:45:03.496Z,10.2
2017-09-16T06:00:03.168Z,10.4
2017-09-16T06:15:02.761Z,10.4
2017-09-16T06:30:02.731Z,10.4
2017-09-16T06:45:03.361Z,10.5
2017-09-16T07:00:02.993Z,10.9
2017-09-16T07:15:02.633Z,10.8
2017-09-16T07:30:03.344Z,10.9
2017-09-16T07:45:03.025Z,10.8
2017-09-16T08:00:02.654Z,10.8
2017-09-16T08:15:03.324Z,10.8
2017-09-16T08:30:03.166Z,10.8
2017-09-16T08:45:02.811Z,10.8
2017-09-16T09:00:03.527Z,11.1
2017-09-16T09:15:03.250Z,11.4
2017-09-16T09:30:02.876Z,11.5
2017-09-16T09:45:03.523Z,11.4
2017-09-16T10:00:03.240Z,11.8
2017-09-16T10:15:02.838Z,11.6
2017-09-16T10:30:03.583Z,11.7
2017-09-16T10:45:03.218Z,11.7
2017-09-16T11:00:02.830Z,11.8
2017-09-16T11:15:03.432Z,11.9
2017-09-16T11:30:03.163Z,11.8
2017-09-16T11:45:02.733Z,11.8
2017-09-16T12:00:03.281Z,11.6
2017-09-16T12:15:02.853Z,11.2
2017-09-16T12:30:02.580Z,11.2
2017-09-16T12:45:03.198Z,11.6
2017-09-16T13:00:02.786Z,11.4
2017-09-16T13:15:03.488Z,11.5
2017-09-16T13:30:03.175Z,11.6
2017-09-16T13:45:02.759Z,11.5
2017-09-16T14:00:03.351Z,11.4
2017-09-16T14:15:02.958Z,11.4
2017-09-16T14:30:02.688Z,11.6
2017-09-16T14:45:03.260Z,11.6
2017-09-16T15:00:02.849Z,11.6
2017-09-16T15:15:03.470Z,11.6
2017-09-16T15:30:03.263Z,11.6
2017-09-16T15:45:02.848Z,11.6
2017-09-16T16:00:03.468Z,11.4
2017-09-16T16:15:03.085Z,11.2
2017-09-16T16:30:02.818Z,11.2
2017-09-16T16:45:03.400Z,11.1
2017-09-16T17:00:02.985Z,11.1
2017-09-16T17:15:02.615Z,11
2017-09-16T17:30:03.302Z,10.8
2017-09-16T17:45:02.931Z,10.8
2017-09-16T18:00:02.535Z,10.5
2017-09-16T18:15:03.179Z,10.6
2017-09-16T18:30:02.846Z,10.4
2017-09-16T18:45:03.585Z,10.6
2017-09-16T19:00:03.177Z,10.3
2017-09-16T19:15:02.741Z,10.3
2017-09-16T19:30:03.423Z,10.2
2017-09-16T19:45:03.004Z,10.2
2017-09-16T20:00:02.558Z,10.1
2017-09-16T20:15:03.177Z,9.9
2017-09-16T20:30:02.972Z,10.1
2017-09-16T20:45:02.621Z,10
2017-09-16T21:00:03.279Z,9.9
2017-09-16T21:15:02.912Z,9.8
2017-09-16T21:30:02.553Z,9.6
2017-09-16T21:45:03.186Z,9.7
2017-09-16T22:00:02.784Z,9.8
2017-09-16T22:15:03.359Z,9.8
2017-09-16T22:30:03.091Z,9.7
2017-09-16T22:45:02.740Z,9.7
2017-09-16T23:00:03.408Z,9.6
2017-09-16T23:15:03.085Z,9.6
2017-09-16T23:30:03.098Z,9.6
2017-09-16T23:45:03.023Z,9.6
